createdAt,value
2019-05-30T00:00:24.219Z,101882.66
2019-05-30T00:02:53.938Z,101880.27
2019-05-30T00:05:22.714Z,101882.66
2019-05-30T00:07:51.273Z,101878.47
2019-05-30T00:10:19.907Z,101885.56
2019-05-30T00:12:48.491Z,101889.97
2019-05-30T00:15:17.184Z,101892.81
2019-05-30T00:17:45.837Z,101899.51
2019-05-30T00:20:14.898Z,101894.30
2019-05-30T00:22:43.503Z,101900.42
2019-05-30T00:25:12.177Z,101901.42
2019-05-30T00:27:40.782Z,101903.28
2019-05-30T00:30:24.012Z,101900.34
2019-05-30T00:32:39.803Z,101894.63
2019-05-30T00:35:08.744Z,101897.69
2019-05-30T00:37:37.890Z,101895.08
2019-05-30T00:40:08.043Z,101897.66
2019-05-30T00:42:39.009Z,101899.70
2019-05-30T00:45:20.080Z,101896.53
2019-05-30T00:47:38.468Z,101900.01
2019-05-30T00:50:07.369Z,101897.19
2019-05-30T00:52:35.951Z,101889.95
2019-05-30T00:55:07.019Z,101900.41
2019-05-30T00:57:35.897Z,101903.44
2019-05-30T01:00:08.929Z,101901.41
2019-05-30T01:02:37.628Z,101903.84
2019-05-30T01:05:08.372Z,101898.82
2019-05-30T01:07:36.993Z,101896.48
2019-05-30T01:10:09.075Z,101899.91
2019-05-30T01:12:37.913Z,101897.48
2019-05-30T01:15:09.770Z,101895.31
2019-05-30T01:17:38.409Z,101897.05
2019-05-30T01:20:07.924Z,101894.80
2019-05-30T01:22:36.699Z,101896.89
2019-05-30T01:25:08.377Z,101895.70
2019-05-30T01:27:37.710Z,101889.58
2019-05-30T01:30:08.054Z,101889.19
2019-05-30T01:32:36.787Z,101895.06
2019-05-30T01:35:06.287Z,101890.11
2019-05-30T01:37:34.915Z,101895.81
2019-05-30T01:40:04.139Z,101893.84
2019-05-30T01:42:33.058Z,101890.11
2019-05-30T01:45:02.492Z,101894.56
2019-05-30T01:47:31.337Z,101888.22
2019-05-30T01:50:00.380Z,101883.72
2019-05-30T01:52:29.261Z,101891.86
2019-05-30T01:54:58.521Z,101888.84
2019-05-30T01:57:27.317Z,101893.58
2019-05-30T01:59:55.940Z,101893.76
2019-05-30T02:02:24.580Z,101888.78
2019-05-30T02:04:53.159Z,101886.58
2019-05-30T02:07:21.801Z,101885.40
2019-05-30T02:09:50.393Z,101888.55
2019-05-30T02:12:19.050Z,101882.58
2019-05-30T02:14:47.606Z,101888.42
2019-05-30T02:17:16.236Z,101891.03
2019-05-30T02:19:44.798Z,101885.00
2019-05-30T02:22:13.530Z,101890.04
2019-05-30T02:24:42.133Z,101883.66
2019-05-30T02:27:10.759Z,101879.34
2019-05-30T02:29:39.323Z,101884.73
2019-05-30T02:32:09.215Z,101878.30
2019-05-30T02:34:38.271Z,101887.59
2019-05-30T02:37:08.395Z,101883.64
2019-05-30T02:39:37.229Z,101893.09
2019-05-30T02:42:07.414Z,101891.73
2019-05-30T02:44:36.189Z,101893.31
2019-05-30T02:47:05.612Z,101896.70
2019-05-30T02:49:35.538Z,101895.81
2019-05-30T02:52:04.890Z,101900.18
2019-05-30T02:54:34.600Z,101905.31
2019-05-30T02:57:03.561Z,101906.25
2019-05-30T02:59:32.270Z,101905.88
2019-05-30T03:02:04.508Z,101907.75
2019-05-30T03:04:31.123Z,101914.67
2019-05-30T03:07:01.841Z,101918.53
2019-05-30T03:09:30.125Z,101912.71
2019-05-30T03:11:58.768Z,101918.03
2019-05-30T03:14:27.408Z,101915.97
2019-05-30T03:16:56.135Z,101924.80
2019-05-30T03:19:24.769Z,101924.91
2019-05-30T03:21:53.429Z,101920.59
2019-05-30T03:24:22.063Z,101926.69
2019-05-30T03:26:50.815Z,101931.09
2019-05-30T03:29:19.375Z,101930.44
2019-05-30T03:31:48.489Z,101929.58
2019-05-30T03:34:26.929Z,101922.82
2019-05-30T03:36:47.536Z,101931.83
2019-05-30T03:39:16.179Z,101934.36
2019-05-30T03:41:44.961Z,101931.36
2019-05-30T03:44:15.517Z,101931.94
2019-05-30T03:46:50.017Z,101933.21
2019-05-30T03:49:21.804Z,101934.69
2019-05-30T03:51:51.251Z,101933.83
2019-05-30T03:54:20.139Z,101934.03
2019-05-30T03:57:08.800Z,101931.74
2019-05-30T03:59:49.566Z,101929.93
2019-05-30T04:02:21.493Z,101931.95
2019-05-30T04:05:00.804Z,101934.97
2019-05-30T04:07:30.907Z,101933.38
2019-05-30T04:10:00.944Z,101938.34
2019-05-30T04:12:41.731Z,101940.59
2019-05-30T04:15:25.571Z,101936.59
2019-05-30T04:17:54.211Z,101943.09
2019-05-30T04:20:23.303Z,101940.36
2019-05-30T04:22:52.179Z,101936.69
2019-05-30T04:25:20.774Z,101938.53
2019-05-30T04:27:49.423Z,101939.35
2019-05-30T04:30:18.505Z,101940.50
2019-05-30T04:32:50.319Z,101941.96
2019-05-30T04:35:19.081Z,101944.03
2019-05-30T04:37:47.665Z,101947.66
2019-05-30T04:40:17.631Z,101950.78
2019-05-30T04:42:46.950Z,101948.12
2019-05-30T04:45:16.045Z,101949.83
2019-05-30T04:47:46.306Z,101947.20
2019-05-30T04:50:16.358Z,101946.25
2019-05-30T04:52:45.337Z,101949.41
2019-05-30T04:55:16.037Z,101949.88
2019-05-30T04:57:44.267Z,101954.00
2019-05-30T05:00:15.080Z,101950.30
2019-05-30T05:02:43.569Z,101945.27
2019-05-30T05:05:13.308Z,101952.63
2019-05-30T05:07:42.565Z,101943.81
2019-05-30T05:10:12.104Z,101949.75
2019-05-30T05:12:40.953Z,101955.98
2019-05-30T05:15:10.387Z,101946.54
2019-05-30T05:17:38.984Z,101947.33
2019-05-30T05:20:08.473Z,101944.63
2019-05-30T05:22:37.088Z,101951.97
2019-05-30T05:25:08.875Z,101947.62
2019-05-30T05:27:37.519Z,101949.47
2019-05-30T05:30:10.208Z,101948.73
2019-05-30T05:32:38.800Z,101948.11
2019-05-30T05:35:07.671Z,101945.91
2019-05-30T05:37:36.341Z,101949.03
2019-05-30T05:40:08.114Z,101943.91
2019-05-30T05:42:36.747Z,101950.05
2019-05-30T05:45:07.296Z,101952.00
2019-05-30T05:47:35.912Z,101951.05
2019-05-30T05:50:05.634Z,101953.09
2019-05-30T05:52:34.333Z,101951.83
2019-05-30T05:55:03.057Z,101948.84
2019-05-30T05:57:31.762Z,101945.56
2019-05-30T06:00:00.380Z,101945.00
2019-05-30T06:02:29.099Z,101946.66
2019-05-30T06:04:57.681Z,101948.33
2019-05-30T06:07:26.458Z,101946.21
2019-05-30T06:09:55.140Z,101948.47
2019-05-30T06:12:26.457Z,101947.12
2019-05-30T06:14:55.130Z,101941.91
2019-05-30T06:17:23.705Z,101948.20
2019-05-30T06:19:52.389Z,101951.78
2019-05-30T06:22:21.478Z,101955.09
2019-05-30T06:24:50.094Z,101949.52
2019-05-30T06:27:20.051Z,101952.78
2019-05-30T06:29:48.832Z,101947.23
2019-05-30T06:32:18.552Z,101950.38
2019-05-30T06:34:48.966Z,101956.58
2019-05-30T06:37:17.520Z,101951.65
2019-05-30T06:39:46.257Z,101947.60
2019-05-30T06:42:14.820Z,101956.49
2019-05-30T06:44:43.490Z,101953.05
2019-05-30T06:47:12.080Z,101945.14
2019-05-30T06:49:40.848Z,101948.58
2019-05-30T06:52:09.421Z,101945.70
2019-05-30T06:54:38.061Z,101950.96
2019-05-30T06:57:06.720Z,101947.41
2019-05-30T06:59:35.410Z,101948.45
2019-05-30T07:02:04.116Z,101947.36
2019-05-30T07:04:50.181Z,101950.33
2019-05-30T07:07:05.957Z,101950.85
2019-05-30T07:09:33.403Z,101949.09
2019-05-30T07:12:01.998Z,101946.41
2019-05-30T07:14:31.456Z,101942.75
2019-05-30T07:17:00.267Z,101944.38
2019-05-30T07:19:29.546Z,101936.69
2019-05-30T07:21:58.457Z,101938.25
2019-05-30T07:24:27.777Z,101939.33
2019-05-30T07:26:56.583Z,101938.91
2019-05-30T07:29:25.801Z,101932.41
2019-05-30T07:31:54.493Z,101932.61
2019-05-30T07:34:23.918Z,101936.50
2019-05-30T07:36:52.710Z,101933.68
2019-05-30T07:39:21.366Z,101932.88
2019-05-30T07:42:05.223Z,101938.52
2019-05-30T07:44:20.255Z,101930.53
2019-05-30T07:46:48.831Z,101925.47
2019-05-30T07:49:17.554Z,101928.80
2019-05-30T07:51:46.180Z,101931.09
2019-05-30T07:54:14.863Z,101932.63
2019-05-30T07:56:43.423Z,101928.94
2019-05-30T07:59:12.091Z,101928.00
2019-05-30T08:01:40.674Z,101924.25
2019-05-30T08:04:09.312Z,101917.25
2019-05-30T08:06:37.996Z,101921.84
2019-05-30T08:09:07.192Z,101916.75
2019-05-30T08:11:37.426Z,101921.30
2019-05-30T08:14:06.113Z,101917.46
2019-05-30T08:16:35.488Z,101915.11
2019-05-30T08:19:04.529Z,101909.31
2019-05-30T08:21:34.211Z,101908.98
2019-05-30T08:24:03.035Z,101906.54
2019-05-30T08:26:32.071Z,101910.83
2019-05-30T08:29:00.823Z,101915.84
2019-05-30T08:31:30.401Z,101908.20
2019-05-30T08:33:59.123Z,101898.49
2019-05-30T08:36:28.762Z,101898.76
2019-05-30T08:38:57.539Z,101895.33
2019-05-30T08:41:26.170Z,101895.38
2019-05-30T08:43:54.830Z,101893.59
2019-05-30T08:46:23.400Z,101896.36
2019-05-30T08:48:52.109Z,101898.53
2019-05-30T08:51:20.681Z,101893.12
2019-05-30T08:53:49.331Z,101892.02
2019-05-30T08:56:17.910Z,101895.25
2019-05-30T08:58:46.570Z,101895.70
2019-05-30T09:01:15.153Z,101892.69
2019-05-30T09:03:44.174Z,101889.89
2019-05-30T09:06:13.014Z,101890.19
2019-05-30T09:08:42.167Z,101885.64
2019-05-30T09:11:10.972Z,101875.22
2019-05-30T09:13:40.430Z,101872.58
2019-05-30T09:16:09.214Z,101866.89
2019-05-30T09:18:39.517Z,101862.20
2019-05-30T09:21:08.223Z,101863.86
2019-05-30T09:23:38.276Z,101863.84
2019-05-30T09:26:07.388Z,101860.17
2019-05-30T09:28:36.009Z,101858.56
2019-05-30T09:31:04.658Z,101862.98
2019-05-30T09:33:33.332Z,101859.24
2019-05-30T09:36:12.886Z,101858.98
2019-05-30T09:38:32.302Z,101853.29
2019-05-30T09:41:00.934Z,101848.53
2019-05-30T09:43:29.546Z,101850.84
2019-05-30T09:45:59.736Z,101842.38
2019-05-30T09:48:28.328Z,101850.20
2019-05-30T09:50:56.946Z,101846.75
2019-05-30T09:53:25.600Z,101849.63
2019-05-30T09:55:54.269Z,101843.02
2019-05-30T09:58:22.924Z,101844.97
2019-05-30T10:00:52.272Z,101852.25
2019-05-30T10:03:21.115Z,101815.41
2019-05-30T10:05:50.572Z,101841.20
2019-05-30T10:08:19.399Z,101843.25
2019-05-30T10:10:49.444Z,101836.95
2019-05-30T10:13:18.354Z,101838.18
2019-05-30T10:15:47.101Z,101833.27
2019-05-30T10:18:16.933Z,101834.10
2019-05-30T10:20:46.290Z,101831.86
2019-05-30T10:23:15.896Z,101826.64
2019-05-30T10:25:44.921Z,101822.24
2019-05-30T10:28:14.671Z,101823.03
2019-05-30T10:30:51.791Z,101813.63
2019-05-30T10:33:16.025Z,101818.02
2019-05-30T10:35:45.735Z,101809.66
2019-05-30T10:38:14.904Z,101810.16
2019-05-30T10:40:43.473Z,101805.50
2019-05-30T10:43:12.093Z,101803.52
2019-05-30T10:45:40.746Z,101801.83
2019-05-30T10:48:09.439Z,101803.37
2019-05-30T10:50:38.031Z,101797.06
2019-05-30T10:53:06.686Z,101792.13
2019-05-30T10:55:35.861Z,101786.30
2019-05-30T10:58:04.630Z,101787.28
2019-05-30T11:00:55.246Z,101786.36
2019-05-30T11:03:25.093Z,101783.67
2019-05-30T11:06:11.925Z,101771.77
2019-05-30T11:08:41.215Z,101764.19
2019-05-30T11:11:09.810Z,101764.09
2019-05-30T11:13:38.496Z,101762.84
2019-05-30T11:16:07.132Z,101772.37
2019-05-30T11:18:35.841Z,101776.75
2019-05-30T11:21:04.557Z,101757.41
2019-05-30T11:23:33.256Z,101749.11
2019-05-30T11:26:01.832Z,101753.58
2019-05-30T11:28:30.584Z,101750.16
2019-05-30T11:30:59.146Z,101748.05
2019-05-30T11:33:27.798Z,101758.66
2019-05-30T11:35:57.031Z,101749.27
2019-05-30T11:38:25.936Z,101741.31
2019-05-30T11:40:55.508Z,101732.12
2019-05-30T11:43:24.215Z,101738.76
2019-05-30T11:45:53.570Z,101738.68
2019-05-30T11:48:22.502Z,101731.58
2019-05-30T11:50:52.019Z,101720.05
2019-05-30T11:53:20.751Z,101714.39
2019-05-30T11:55:50.136Z,101731.17
2019-05-30T11:58:19.820Z,101728.01
2019-05-30T12:00:50.191Z,101720.55
2019-05-30T12:03:18.954Z,101720.63
2019-05-30T12:05:47.522Z,101716.69
2019-05-30T12:08:16.139Z,101715.85
2019-05-30T12:10:44.695Z,101712.27
2019-05-30T12:13:13.326Z,101705.78
2019-05-30T12:15:41.953Z,101716.80
2019-05-30T12:18:10.610Z,101709.45
2019-05-30T12:20:39.195Z,101699.06
2019-05-30T12:23:07.893Z,101705.61
2019-05-30T12:25:36.453Z,101707.34
2019-05-30T12:28:05.245Z,101711.08
2019-05-30T12:30:33.884Z,101701.04
2019-05-30T12:33:02.735Z,101699.28
2019-05-30T12:35:31.357Z,101696.20
2019-05-30T12:38:04.516Z,101692.80
2019-05-30T12:40:30.332Z,101693.60
2019-05-30T12:42:59.890Z,101687.48
2019-05-30T12:45:29.299Z,101675.23
2019-05-30T12:47:59.163Z,101676.34
2019-05-30T12:50:28.137Z,101683.01
2019-05-30T12:52:57.616Z,101681.66
2019-05-30T12:55:26.250Z,101681.45
2019-05-30T12:57:54.921Z,101677.36
2019-05-30T13:00:26.718Z,101667.94
2019-05-30T13:02:55.404Z,101674.08
2019-05-30T13:05:23.993Z,101657.25
2019-05-30T13:07:52.691Z,101663.42
2019-05-30T13:10:21.390Z,101664.17
2019-05-30T13:12:50.054Z,101666.02
2019-05-30T13:15:19.205Z,101665.67
2019-05-30T13:17:47.899Z,101666.84
2019-05-30T13:20:16.925Z,101675.45
2019-05-30T13:22:45.525Z,101671.70
2019-05-30T13:25:16.753Z,101657.05
2019-05-30T13:27:45.447Z,101643.11
2019-05-30T13:30:14.502Z,101647.49
2019-05-30T13:32:43.155Z,101650.50
2019-05-30T13:35:13.281Z,101647.37
2019-05-30T13:37:42.210Z,101648.45
2019-05-30T13:40:24.118Z,101648.66
2019-05-30T13:42:42.723Z,101644.95
2019-05-30T13:45:11.824Z,101632.72
2019-05-30T13:47:40.495Z,101641.80
2019-05-30T13:50:13.908Z,101634.25
2019-05-30T13:52:41.572Z,101616.66
2019-05-30T13:55:11.885Z,101634.69
2019-05-30T13:57:40.519Z,101638.90
2019-05-30T14:00:10.599Z,101636.20
2019-05-30T14:02:39.901Z,101636.55
2019-05-30T14:05:10.317Z,101642.23
2019-05-30T14:07:39.362Z,101635.05
2019-05-30T14:10:10.700Z,101635.97
2019-05-30T14:12:39.708Z,101633.31
2019-05-30T14:15:14.034Z,101627.34
2019-05-30T14:17:41.708Z,101625.50
2019-05-30T14:20:11.504Z,101626.08
2019-05-30T14:22:40.533Z,101631.44
2019-05-30T14:25:10.012Z,101629.70
2019-05-30T14:27:39.028Z,101631.20
2019-05-30T14:30:08.901Z,101633.07
2019-05-30T14:32:38.032Z,101630.47
2019-05-30T14:35:11.676Z,101630.80
2019-05-30T14:37:40.389Z,101632.93
2019-05-30T14:40:11.388Z,101627.69
2019-05-30T14:42:40.026Z,101629.59
2019-05-30T14:45:10.373Z,101621.20
2019-05-30T14:47:39.377Z,101619.66
2019-05-30T14:50:09.288Z,101621.51
2019-05-30T14:52:37.899Z,101616.98
2019-05-30T14:55:09.060Z,101616.00
2019-05-30T14:57:38.042Z,101609.64
2019-05-30T15:00:09.501Z,101607.67
2019-05-30T15:02:38.504Z,101614.18
2019-05-30T15:05:07.839Z,101613.84
2019-05-30T15:07:36.449Z,101616.64
2019-05-30T15:10:08.776Z,101618.51
2019-05-30T15:12:37.577Z,101624.70
2019-05-30T15:15:08.005Z,101612.81
2019-05-30T15:17:37.520Z,101615.14
2019-05-30T15:20:07.687Z,101611.73
2019-05-30T15:22:36.289Z,101610.38
2019-05-30T15:25:07.846Z,101604.17
2019-05-30T15:27:37.157Z,101606.39
2019-05-30T15:30:08.512Z,101616.06
2019-05-30T15:32:37.144Z,101610.67
2019-05-30T15:35:06.760Z,101607.42
2019-05-30T15:37:35.736Z,101607.41
2019-05-30T15:40:09.270Z,101610.89
2019-05-30T15:42:37.955Z,101615.55
2019-05-30T15:45:10.070Z,101606.13
2019-05-30T15:47:38.991Z,101618.88
2019-05-30T15:50:08.340Z,101611.12
2019-05-30T15:52:37.657Z,101614.35
2019-05-30T15:55:09.099Z,101614.33
2019-05-30T15:57:37.922Z,101615.58
2019-05-30T16:00:12.101Z,101615.16
2019-05-30T16:02:41.346Z,101611.61
2019-05-30T16:05:10.718Z,101614.33
2019-05-30T16:07:39.586Z,101615.73
2019-05-30T16:10:08.584Z,101608.97
2019-05-30T16:12:37.555Z,101606.39
2019-05-30T16:15:07.269Z,101608.00
2019-05-30T16:17:36.006Z,101607.45
2019-05-30T16:20:06.817Z,101608.17
2019-05-30T16:22:35.491Z,101616.09
2019-05-30T16:25:07.237Z,101607.13
2019-05-30T16:27:35.885Z,101607.70
2019-05-30T16:30:09.877Z,101605.03
2019-05-30T16:32:38.797Z,101607.38
2019-05-30T16:35:08.434Z,101604.85
2019-05-30T16:37:37.040Z,101607.06
2019-05-30T16:40:10.074Z,101606.13
2019-05-30T16:42:38.661Z,101613.92
2019-05-30T16:45:08.894Z,101602.87
2019-05-30T16:47:37.815Z,101605.94
2019-05-30T16:50:08.567Z,101605.94
2019-05-30T16:52:37.348Z,101604.99
2019-05-30T16:55:07.009Z,101608.02
2019-05-30T16:57:35.661Z,101611.28
2019-05-30T17:00:10.342Z,101602.28
2019-05-30T17:02:38.966Z,101602.47
2019-05-30T17:05:07.896Z,101613.78
2019-05-30T17:07:36.848Z,101614.30
2019-05-30T17:10:22.203Z,101620.34
2019-05-30T17:12:41.445Z,101612.34
2019-05-30T17:15:10.450Z,101612.62
2019-05-30T17:17:39.103Z,101612.57
2019-05-30T17:20:08.796Z,101620.39
2019-05-30T17:22:37.467Z,101618.25
2019-05-30T17:25:06.981Z,101622.03
2019-05-30T17:27:35.892Z,101619.82
2019-05-30T17:30:06.353Z,101627.30
2019-05-30T17:32:35.012Z,101625.33
2019-05-30T17:35:05.741Z,101626.55
2019-05-30T17:37:34.548Z,101624.59
2019-05-30T17:40:04.583Z,101624.13
2019-05-30T17:42:33.296Z,101630.16
2019-05-30T17:45:01.881Z,101626.36
2019-05-30T17:47:30.496Z,101630.26
2019-05-30T17:49:59.059Z,101629.58
2019-05-30T17:52:27.960Z,101630.66
2019-05-30T17:54:56.716Z,101633.61
2019-05-30T17:57:26.046Z,101632.02
2019-05-30T17:59:54.577Z,101628.81
2019-05-30T18:02:24.342Z,101628.84
2019-05-30T18:04:53.241Z,101626.89
2019-05-30T18:07:22.777Z,101632.31
2019-05-30T18:09:53.324Z,101634.02
2019-05-30T18:12:23.414Z,101633.06
2019-05-30T18:14:51.975Z,101643.80
2019-05-30T18:17:25.134Z,101641.19
2019-05-30T18:19:53.879Z,101649.69
2019-05-30T18:22:23.390Z,101646.30
2019-05-30T18:24:52.073Z,101650.07
2019-05-30T18:27:21.704Z,101652.11
2019-05-30T18:29:50.481Z,101650.48
2019-05-30T18:32:19.042Z,101655.23
2019-05-30T18:34:47.665Z,101658.19
2019-05-30T18:37:16.332Z,101661.28
2019-05-30T18:39:44.965Z,101652.39
2019-05-30T18:42:13.548Z,101654.67
2019-05-30T18:44:42.221Z,101649.20
2019-05-30T18:47:10.819Z,101659.59
2019-05-30T18:49:39.457Z,101654.20
2019-05-30T18:52:08.113Z,101652.56
2019-05-30T18:54:36.931Z,101653.13
2019-05-30T18:57:06.458Z,101648.97
2019-05-30T18:59:35.096Z,101660.25
2019-05-30T19:02:03.750Z,101656.97
2019-05-30T19:04:33.705Z,101662.69
2019-05-30T19:07:02.456Z,101657.22
2019-05-30T19:09:31.922Z,101668.03
2019-05-30T19:12:01.515Z,101667.37
2019-05-30T19:14:32.482Z,101670.78
2019-05-30T19:17:00.477Z,101671.70
2019-05-30T19:19:29.664Z,101676.84
2019-05-30T19:21:58.462Z,101676.34
2019-05-30T19:24:28.141Z,101678.14
2019-05-30T19:26:57.078Z,101686.48
2019-05-30T19:29:26.603Z,101684.02
2019-05-30T19:31:55.231Z,101687.63
2019-05-30T19:34:23.844Z,101700.29
2019-05-30T19:36:52.419Z,101701.93
2019-05-30T19:39:21.070Z,101633.87
2019-05-30T19:41:56.672Z,101699.46
2019-05-30T19:44:19.968Z,101701.26
2019-05-30T19:46:48.533Z,101700.44
2019-05-30T19:49:17.161Z,101700.84
2019-05-30T19:51:45.720Z,101706.15
2019-05-30T19:54:14.384Z,101707.80
2019-05-30T19:56:42.948Z,101706.86
2019-05-30T19:59:11.579Z,101701.91
2019-05-30T20:01:40.207Z,101704.41
2019-05-30T20:04:08.847Z,101707.18
2019-05-30T20:06:38.683Z,101706.36
2019-05-30T20:09:07.757Z,101704.61
2019-05-30T20:11:37.300Z,101710.39
2019-05-30T20:14:06.199Z,101714.64
2019-05-30T20:16:35.729Z,101713.88
2019-05-30T20:19:04.499Z,101700.28
2019-05-30T20:21:33.755Z,101703.59
2019-05-30T20:24:02.465Z,101704.98
2019-05-30T20:26:32.378Z,101701.62
2019-05-30T20:29:01.127Z,101699.47
2019-05-30T20:31:29.729Z,101700.77
2019-05-30T20:33:58.355Z,101708.20
2019-05-30T20:36:26.919Z,101702.19
2019-05-30T20:38:55.543Z,101696.94
2019-05-30T20:41:24.224Z,101698.36
2019-05-30T20:43:52.813Z,101698.20
2019-05-30T20:46:23.422Z,101697.38
2019-05-30T20:48:51.789Z,101701.80
2019-05-30T20:51:21.371Z,101704.17
2019-05-30T20:53:50.646Z,101698.93
2019-05-30T20:56:19.234Z,101706.27
2019-05-30T20:58:47.950Z,101704.45
2019-05-30T21:01:16.513Z,101706.64
2019-05-30T21:03:45.904Z,101706.52
2019-05-30T21:06:14.669Z,101716.94
2019-05-30T21:08:43.379Z,101716.77
2019-05-30T21:11:12.913Z,101716.64
2019-05-30T21:13:42.293Z,101720.47
2019-05-30T21:16:11.104Z,101721.77
2019-05-30T21:18:40.308Z,101715.88
2019-05-30T21:21:08.894Z,101719.56
2019-05-30T21:23:38.301Z,101714.70
2019-05-30T21:26:06.982Z,101725.08
2019-05-30T21:28:36.622Z,101717.31
2019-05-30T21:31:05.525Z,101722.30
2019-05-30T21:33:34.335Z,101725.15
2019-05-30T21:36:03.312Z,101724.67
2019-05-30T21:38:31.994Z,101728.09
2019-05-30T21:41:00.565Z,101722.10
2019-05-30T21:43:29.218Z,101728.34
2019-05-30T21:45:57.803Z,101721.66
2019-05-30T21:48:26.395Z,101724.78
2019-05-30T21:50:55.002Z,101724.03
2019-05-30T21:53:23.680Z,101723.41
2019-05-30T21:55:52.264Z,101722.02
2019-05-30T21:58:20.853Z,101722.47
2019-05-30T22:01:01.306Z,101718.20
2019-05-30T22:03:29.926Z,101719.34
2019-05-30T22:05:58.523Z,101720.39
2019-05-30T22:08:27.138Z,101719.08
2019-05-30T22:10:55.740Z,101714.17
2019-05-30T22:13:24.449Z,101714.03
2019-05-30T22:15:53.034Z,101712.34
2019-05-30T22:18:21.744Z,101712.60
2019-05-30T22:20:50.355Z,101713.02
2019-05-30T22:23:18.959Z,101716.45
2019-05-30T22:25:48.236Z,101720.12
2019-05-30T22:28:17.016Z,101719.08
2019-05-30T22:30:46.342Z,101718.69
2019-05-30T22:33:15.215Z,101724.64
2019-05-30T22:35:44.782Z,101724.48
2019-05-30T22:38:13.640Z,101724.75
2019-05-30T22:40:42.296Z,101723.31
2019-05-30T22:43:24.555Z,101722.42
2019-05-30T22:45:41.240Z,101722.33
